createdAt,value
2018-06-04T00:02:25.791Z,6.70
2018-06-04T00:04:53.510Z,7.78
2018-06-04T00:07:21.381Z,8.50
2018-06-04T00:09:49.288Z,8.00
2018-06-04T00:12:17.205Z,8.90
2018-06-04T00:14:45.065Z,9.33
2018-06-04T00:17:12.970Z,6.78
2018-06-04T00:19:40.862Z,6.97
2018-06-04T00:22:08.745Z,7.60
2018-06-04T00:24:36.676Z,6.83
2018-06-04T00:27:04.596Z,7.70
2018-06-04T00:29:32.647Z,8.20
2018-06-04T00:32:00.384Z,8.20
2018-06-04T00:34:28.303Z,9.00
2018-06-04T00:36:56.177Z,8.85
2018-06-04T00:39:24.068Z,8.55
2018-06-04T00:41:51.976Z,8.60
2018-06-04T00:44:19.851Z,8.45
2018-06-04T00:46:47.575Z,8.90
2018-06-04T00:49:15.448Z,8.65
2018-06-04T00:51:43.348Z,8.90
2018-06-04T00:54:11.282Z,8.53
2018-06-04T00:56:39.160Z,8.68
2018-06-04T00:59:07.061Z,8.90
2018-06-04T01:01:34.792Z,8.30
2018-06-04T01:04:02.672Z,9.30
2018-06-04T01:06:30.552Z,9.33
2018-06-04T01:08:58.464Z,9.00
2018-06-04T01:11:26.361Z,8.63
2018-06-04T01:13:54.296Z,8.48
2018-06-04T01:16:22.236Z,9.00
2018-06-04T01:18:50.115Z,8.70
2018-06-04T01:21:17.855Z,9.65
2018-06-04T01:23:45.748Z,9.63
2018-06-04T01:26:13.520Z,9.68
2018-06-04T01:28:41.274Z,10.30
2018-06-04T01:31:09.003Z,10.13
2018-06-04T01:33:36.903Z,9.40
2018-06-04T01:36:04.849Z,10.00
2018-06-04T01:38:32.751Z,8.75
2018-06-04T01:41:00.454Z,9.28
2018-06-04T01:43:28.358Z,9.00
2018-06-04T01:45:56.269Z,9.40
2018-06-04T01:48:24.156Z,10.25
2018-06-04T01:50:52.071Z,10.20
2018-06-04T01:53:19.977Z,9.73
2018-06-04T01:55:47.696Z,10.15
2018-06-04T01:58:15.584Z,9.85
2018-06-04T02:00:43.704Z,9.63
2018-06-04T02:03:11.590Z,10.10
2018-06-04T02:05:39.500Z,9.75
2018-06-04T02:08:07.220Z,9.65
2018-06-04T02:10:35.108Z,9.50
2018-06-04T02:13:03.000Z,9.75
2018-06-04T02:15:30.727Z,10.40
2018-06-04T02:17:58.592Z,10.35
2018-06-04T02:20:26.576Z,9.40
2018-06-04T02:22:54.493Z,9.43
2018-06-04T02:25:22.435Z,9.40
2018-06-04T02:27:50.344Z,9.55
2018-06-04T02:30:18.273Z,10.20
2018-06-04T02:32:46.141Z,10.00
2018-06-04T02:35:15.552Z,10.27
2018-06-04T02:37:44.017Z,9.23
2018-06-04T02:40:11.953Z,10.30
2018-06-04T02:42:39.874Z,10.33
2018-06-04T02:45:07.768Z,10.30
2018-06-04T02:47:35.941Z,10.98
2018-06-04T02:50:04.307Z,10.98
2018-06-04T02:52:32.220Z,11.63
2018-06-04T02:55:00.274Z,11.57
2018-06-04T02:57:28.346Z,10.72
2018-06-04T02:59:56.552Z,12.25
2018-06-04T03:02:24.599Z,10.85
2018-06-04T03:04:52.809Z,11.28
2018-06-04T03:07:20.856Z,11.40
2018-06-04T03:09:48.914Z,11.63
2018-06-04T03:12:16.994Z,12.90
2018-06-04T03:14:45.056Z,11.60
2018-06-04T03:17:13.161Z,12.07
2018-06-04T03:19:41.340Z,11.83
2018-06-04T03:22:09.474Z,11.00
2018-06-04T03:24:37.565Z,10.72
2018-06-04T03:27:05.750Z,11.97
2018-06-04T03:29:33.805Z,10.60
2018-06-04T03:32:01.897Z,12.00
2018-06-04T03:34:29.949Z,11.25
2018-06-04T03:36:58.149Z,11.70
2018-06-04T03:39:26.207Z,12.00
2018-06-04T03:41:54.260Z,11.50
2018-06-04T03:44:22.474Z,11.40
2018-06-04T03:46:50.528Z,11.70
2018-06-04T03:49:18.604Z,11.83
2018-06-04T03:51:46.684Z,12.20
2018-06-04T03:54:14.739Z,11.43
2018-06-04T03:56:42.832Z,10.38
2018-06-04T03:59:10.896Z,10.40
2018-06-04T04:01:38.948Z,10.30
2018-06-04T04:04:07.205Z,10.20
2018-06-04T04:06:35.329Z,10.45
2018-06-04T04:09:05.032Z,9.50
2018-06-04T04:11:33.108Z,9.13
2018-06-04T04:14:01.266Z,8.73
2018-06-04T04:16:29.360Z,8.90
2018-06-04T04:18:57.433Z,9.50
2018-06-04T04:21:25.700Z,9.23
2018-06-04T04:23:53.793Z,10.05
2018-06-04T04:26:22.029Z,10.20
2018-06-04T04:28:49.902Z,10.10
2018-06-04T04:31:18.017Z,9.93
2018-06-04T04:33:46.176Z,10.08
2018-06-04T04:36:14.220Z,9.97
2018-06-04T04:38:42.010Z,10.50
2018-06-04T04:41:10.172Z,9.83
2018-06-04T04:43:38.255Z,10.38
2018-06-04T04:46:06.347Z,10.80
2018-06-04T04:48:34.385Z,11.70
2018-06-04T04:51:02.524Z,11.05
2018-06-04T04:53:30.566Z,10.98
2018-06-04T04:55:58.712Z,11.70
2018-06-04T04:58:26.853Z,11.10
2018-06-04T05:00:54.648Z,11.15
2018-06-04T05:03:22.517Z,11.57
2018-06-04T05:05:50.403Z,11.05
2018-06-04T05:08:18.493Z,11.80
2018-06-04T05:10:46.544Z,11.35
2018-06-04T05:13:14.736Z,12.15
2018-06-04T05:15:42.928Z,12.40
2018-06-04T05:18:10.957Z,12.40
2018-06-04T05:20:39.065Z,12.33
2018-06-04T05:23:07.142Z,13.28
2018-06-04T05:25:35.205Z,12.95
2018-06-04T05:28:03.348Z,12.53
2018-06-04T05:30:31.341Z,12.10
2018-06-04T05:32:59.449Z,11.93
2018-06-04T05:35:27.788Z,11.78
2018-06-04T05:37:55.976Z,11.85
2018-06-04T05:40:24.052Z,12.37
2018-06-04T05:42:52.093Z,12.80
2018-06-04T05:45:20.208Z,12.37
2018-06-04T05:47:48.279Z,12.70
2018-06-04T05:50:16.329Z,12.63
2018-06-04T05:52:44.408Z,12.55
2018-06-04T05:55:12.481Z,12.93
2018-06-04T05:57:40.536Z,13.30
2018-06-04T06:00:08.647Z,13.50
2018-06-04T06:02:36.682Z,13.08
2018-06-04T06:05:04.887Z,13.68
2018-06-04T06:07:32.956Z,13.10
2018-06-04T06:10:00.983Z,14.57
2018-06-04T06:12:29.209Z,14.47
2018-06-04T06:14:57.276Z,13.50
2018-06-04T06:17:25.335Z,13.80
2018-06-04T06:19:53.599Z,14.47
2018-06-04T06:22:21.704Z,14.50
2018-06-04T06:24:49.747Z,14.38
2018-06-04T06:27:17.850Z,14.47
2018-06-04T06:29:46.005Z,14.90
2018-06-04T06:32:14.217Z,14.30
2018-06-04T06:34:42.356Z,14.68
2018-06-04T06:37:10.453Z,14.30
2018-06-04T06:39:38.609Z,14.65
2018-06-04T06:42:06.695Z,15.03
2018-06-04T06:44:34.859Z,14.40
2018-06-04T06:47:03.030Z,14.55
2018-06-04T06:49:31.116Z,14.20
2018-06-04T06:51:59.248Z,14.30
2018-06-04T06:54:27.461Z,14.35
2018-06-04T06:56:55.545Z,14.50
2018-06-04T06:59:23.712Z,13.95
2018-06-04T07:01:51.956Z,13.15
2018-06-04T07:04:19.969Z,13.00
2018-06-04T07:06:48.018Z,13.32
2018-06-04T07:09:16.124Z,13.95
2018-06-04T07:11:44.120Z,13.65
2018-06-04T07:14:12.192Z,12.60
2018-06-04T07:16:40.320Z,13.80
2018-06-04T07:19:08.396Z,12.80
2018-06-04T07:21:36.495Z,11.55
2018-06-04T07:24:04.763Z,12.75
2018-06-04T07:26:32.820Z,12.83
2018-06-04T07:29:00.900Z,12.60
2018-06-04T07:31:28.966Z,12.70
2018-06-04T07:33:57.059Z,12.35
2018-06-04T07:36:25.102Z,12.45
2018-06-04T07:38:53.206Z,12.13
2018-06-04T07:41:21.290Z,11.88
2018-06-04T07:43:49.328Z,11.50
2018-06-04T07:46:17.411Z,11.33
2018-06-04T07:48:45.445Z,11.55
2018-06-04T07:51:13.437Z,11.97
2018-06-04T07:53:41.550Z,10.90
2018-06-04T07:56:09.699Z,10.90
2018-06-04T07:58:37.796Z,10.28
2018-06-04T08:01:05.860Z,10.78
2018-06-04T08:03:33.910Z,10.72
2018-06-04T08:06:02.414Z,10.87
2018-06-04T08:08:30.488Z,11.65
2018-06-04T08:10:58.638Z,10.40
2018-06-04T08:13:26.837Z,10.63
2018-06-04T08:15:54.917Z,10.72
2018-06-04T08:18:22.972Z,10.43
2018-06-04T08:20:51.071Z,9.95
2018-06-04T08:23:19.191Z,9.68
2018-06-04T08:25:47.185Z,10.03
2018-06-04T08:28:15.271Z,9.05
2018-06-04T08:30:43.348Z,9.50
2018-06-04T08:33:11.600Z,9.40
2018-06-04T08:37:37.357Z,8.25
2018-06-04T08:40:05.423Z,9.08
2018-06-04T09:16:55.667Z,6.10
2018-06-04T09:19:23.726Z,5.60
2018-06-04T09:21:52.044Z,6.60
2018-06-04T09:24:20.099Z,6.22
2018-06-04T09:26:48.177Z,6.17
2018-06-04T09:29:16.233Z,5.90
2018-06-04T09:31:44.320Z,5.95
2018-06-04T09:34:12.369Z,5.65
2018-06-04T09:36:40.521Z,6.50
2018-06-04T09:39:08.508Z,5.93
2018-06-04T09:41:36.411Z,5.97
2018-06-04T09:44:04.447Z,6.23
2018-06-04T09:46:32.239Z,5.93
2018-06-04T09:49:00.291Z,7.30
2018-06-04T09:51:28.086Z,6.40
2018-06-04T09:53:56.151Z,5.70
2018-06-04T09:56:24.251Z,6.50
2018-06-04T09:58:52.283Z,7.47
2018-06-04T10:01:20.359Z,6.53
2018-06-04T10:03:48.441Z,6.57
2018-06-04T10:06:16.534Z,6.20
2018-06-04T10:08:44.596Z,6.50
2018-06-04T10:11:12.741Z,6.60
2018-06-04T10:13:40.637Z,7.10
2018-06-04T10:16:08.794Z,6.77
2018-06-04T10:18:36.997Z,6.67
2018-06-04T10:21:05.023Z,6.67
2018-06-04T10:23:33.152Z,6.70
2018-06-04T10:26:01.292Z,6.43
2018-06-04T10:28:29.384Z,6.00
2018-06-04T10:30:57.459Z,6.77
2018-06-04T10:33:25.503Z,6.50
2018-06-04T10:35:53.601Z,6.20
2018-06-04T10:38:21.653Z,6.00
2018-06-04T10:40:49.441Z,5.80
2018-06-04T10:43:17.493Z,5.30
2018-06-04T10:45:45.294Z,6.17
2018-06-04T10:48:13.351Z,5.73
2018-06-04T10:50:41.423Z,6.37
2018-06-04T10:53:09.484Z,5.60
2018-06-04T10:55:37.696Z,6.07
2018-06-04T10:58:05.755Z,5.60
2018-06-04T11:00:33.801Z,5.93
2018-06-04T11:03:01.687Z,5.93
2018-06-04T11:05:29.749Z,5.63
2018-06-04T11:07:57.849Z,5.30
2018-06-04T11:10:25.896Z,4.70
2018-06-04T11:12:54.001Z,5.40
2018-06-04T11:15:22.045Z,4.60
2018-06-04T11:17:50.128Z,5.43
2018-06-04T11:20:18.199Z,5.00
2018-06-04T11:22:46.278Z,5.63
2018-06-04T11:25:14.325Z,5.30
2018-06-04T11:27:42.244Z,5.00
2018-06-04T11:30:10.268Z,4.20
2018-06-04T11:32:38.168Z,4.60
2018-06-04T11:35:06.225Z,4.70
2018-06-04T11:37:34.329Z,4.50
2018-06-04T11:40:02.392Z,4.27
2018-06-04T11:42:30.431Z,4.90
2018-06-04T11:44:58.233Z,5.90
2018-06-04T11:47:26.266Z,5.43
2018-06-04T11:49:54.106Z,5.40
2018-06-04T11:52:22.360Z,5.93
2018-06-04T11:54:50.406Z,5.70
2018-06-04T11:57:18.602Z,5.00
2018-06-04T11:59:46.637Z,5.53
2018-06-04T12:02:14.682Z,4.60
2018-06-04T12:04:42.685Z,5.03
2018-06-04T12:07:10.768Z,4.63
2018-06-04T12:09:38.824Z,4.83
2018-06-04T12:12:06.940Z,4.67
2018-06-04T12:14:35.078Z,5.70
2018-06-04T12:17:03.168Z,5.00
2018-06-04T12:19:31.223Z,4.70
2018-06-04T12:21:59.107Z,4.90
2018-06-04T12:24:27.176Z,4.40
2018-06-04T12:26:55.220Z,4.77
2018-06-04T12:29:22.998Z,5.10
2018-06-04T12:31:50.889Z,5.40
2018-06-04T12:34:19.051Z,5.33
2018-06-04T12:36:47.138Z,4.73
2018-06-04T12:39:15.190Z,5.40
2018-06-04T12:41:43.077Z,4.53
2018-06-04T12:44:11.135Z,5.43
2018-06-04T12:46:38.936Z,5.60
2018-06-04T12:49:07.006Z,4.80
2018-06-04T12:51:35.058Z,4.80
2018-06-04T12:54:03.147Z,5.60
2018-06-04T12:56:31.198Z,4.77
2018-06-04T12:58:59.397Z,5.17
2018-06-04T13:01:27.448Z,5.10
2018-06-04T13:03:55.490Z,4.37
2018-06-04T13:06:23.484Z,4.40
2018-06-04T13:08:51.288Z,4.33
2018-06-04T13:11:19.353Z,4.07
2018-06-04T13:13:47.400Z,4.77
2018-06-04T13:16:15.377Z,5.00
2018-06-04T13:18:43.640Z,5.10
2018-06-04T13:21:12.654Z,4.40
2018-06-04T13:23:41.536Z,5.30
2018-06-04T13:26:09.423Z,5.30
2018-06-04T13:28:37.613Z,5.60
2018-06-04T13:31:05.661Z,5.43
2018-06-04T13:33:34.369Z,5.40
2018-06-04T13:36:02.367Z,4.93
2018-06-04T13:38:30.625Z,5.00
2018-06-04T13:40:58.549Z,5.50
2018-06-04T13:43:26.345Z,5.80
2018-06-04T13:45:54.508Z,5.10
2018-06-04T13:48:22.913Z,4.83
2018-06-04T13:50:51.088Z,5.60
2018-06-04T13:53:19.335Z,5.83
2018-06-04T13:55:48.060Z,5.30
2018-06-04T13:58:16.097Z,5.57
2018-06-04T14:00:44.775Z,5.57
2018-06-04T14:03:12.686Z,5.20
2018-06-04T14:05:41.056Z,5.30
2018-06-04T14:08:09.119Z,5.50
2018-06-04T14:10:37.996Z,5.23
2018-06-04T14:13:06.054Z,4.60
2018-06-04T14:15:33.854Z,5.57
2018-06-04T14:18:01.912Z,4.60
2018-06-04T14:20:30.039Z,5.10
2018-06-04T14:22:58.082Z,5.07
2018-06-04T14:25:26.256Z,4.30
2018-06-04T14:27:54.512Z,4.90
2018-06-04T14:30:23.045Z,4.53
2018-06-04T14:32:53.996Z,4.57
2018-06-04T14:35:22.112Z,4.53
2018-06-04T14:37:50.264Z,5.07
2018-06-04T14:40:18.062Z,4.30
2018-06-04T14:42:46.254Z,4.63
2018-06-04T14:45:15.862Z,5.13
2018-06-04T14:47:43.941Z,4.20
2018-06-04T14:50:12.731Z,4.83
2018-06-04T14:52:41.114Z,4.40
2018-06-04T14:55:08.990Z,4.80
2018-06-04T14:57:37.016Z,4.70
2018-06-04T15:00:04.933Z,4.70
2018-06-04T15:02:32.956Z,4.53
2018-06-04T15:05:11.939Z,4.10
2018-06-04T15:07:51.695Z,4.40
2018-06-04T15:10:28.489Z,4.10
2018-06-04T15:12:57.540Z,4.23
2018-06-04T15:15:26.079Z,4.80
2018-06-04T15:17:54.766Z,3.87
2018-06-04T15:20:30.228Z,4.20
2018-06-04T15:22:58.195Z,4.10
2018-06-04T15:25:25.973Z,3.90
2018-06-04T15:27:54.054Z,4.37
2018-06-04T15:30:22.112Z,4.20
2018-06-04T15:32:50.111Z,3.83
2018-06-04T15:35:18.261Z,4.03
2018-06-04T15:37:46.413Z,4.17
2018-06-04T15:40:14.612Z,3.80
2018-06-04T15:42:42.722Z,4.90
2018-06-04T15:45:10.753Z,3.97
2018-06-04T15:47:38.881Z,4.07
2018-06-04T15:50:06.932Z,3.70
2018-06-04T15:52:34.979Z,4.00
2018-06-04T15:55:03.062Z,3.80
2018-06-04T15:57:31.116Z,3.60
2018-06-04T15:59:58.911Z,3.87
2018-06-04T16:02:27.063Z,4.97
2018-06-04T16:04:55.063Z,4.97
2018-06-04T16:07:23.120Z,4.90
2018-06-04T16:09:51.208Z,4.33
2018-06-04T16:12:19.269Z,4.20
2018-06-04T16:14:47.387Z,4.73
2018-06-04T16:17:15.401Z,4.10
2018-06-04T16:19:43.190Z,7.60
2018-06-04T16:22:11.289Z,6.53
2018-06-04T16:24:39.331Z,5.17
2018-06-04T16:27:07.411Z,4.93
2018-06-04T16:29:35.812Z,4.40
2018-06-04T16:32:04.004Z,5.00
2018-06-04T16:34:32.023Z,5.80
2018-06-04T16:37:00.127Z,4.90
2018-06-04T16:39:28.164Z,4.67
2018-06-04T16:41:56.594Z,4.30
2018-06-04T16:44:24.628Z,4.57
2018-06-04T16:46:52.711Z,5.40
2018-06-04T16:49:20.764Z,5.43
2018-06-04T16:51:48.861Z,4.70
2018-06-04T16:54:17.243Z,4.77
2018-06-04T16:56:45.307Z,4.77
2018-06-04T16:59:13.362Z,5.20
2018-06-04T17:01:41.150Z,5.47
2018-06-04T17:04:09.204Z,7.03
2018-06-04T17:06:37.305Z,5.77
2018-06-04T17:09:07.316Z,5.33
2018-06-04T17:11:35.360Z,5.13
2018-06-04T17:14:03.261Z,5.47
2018-06-04T17:16:31.311Z,4.67
2018-06-04T17:18:59.412Z,5.37
2018-06-04T17:21:27.461Z,5.40
2018-06-04T17:23:55.748Z,6.20
2018-06-04T17:26:23.822Z,6.47
2018-06-04T17:28:51.899Z,6.40
2018-06-04T17:31:19.952Z,6.30
2018-06-04T17:33:47.735Z,6.60
2018-06-04T17:36:15.824Z,6.43
2018-06-04T17:38:43.903Z,6.67
2018-06-04T17:41:12.135Z,6.50
2018-06-04T17:43:39.922Z,6.80
2018-06-04T17:46:07.990Z,5.90
2018-06-04T17:48:36.085Z,6.10
2018-06-04T17:51:04.163Z,6.53
2018-06-04T17:53:32.424Z,5.80
2018-06-04T17:56:00.504Z,6.67
2018-06-04T17:58:28.651Z,6.27
2018-06-04T18:00:56.447Z,6.13
2018-06-04T18:03:24.488Z,5.80
2018-06-04T18:05:52.394Z,5.93
2018-06-04T18:08:20.535Z,6.07
2018-06-04T18:10:48.445Z,6.13
2018-06-04T18:13:16.496Z,6.77
2018-06-04T18:15:44.558Z,6.03
2018-06-04T18:18:12.664Z,6.00
2018-06-04T18:20:40.696Z,5.57
2018-06-04T18:23:08.497Z,5.53
2018-06-04T18:25:36.539Z,5.43
2018-06-04T18:28:04.652Z,5.70
2018-06-04T18:30:32.693Z,6.13
2018-06-04T18:33:00.794Z,5.90
2018-06-04T18:35:28.868Z,6.10
2018-06-04T18:37:56.915Z,5.93
2018-06-04T18:40:25.006Z,5.50
2018-06-04T18:50:15.042Z,6.10
2018-06-04T18:52:43.091Z,6.37
2018-06-04T18:57:38.520Z,5.95
2018-06-04T19:02:33.655Z,5.83
2018-06-04T19:05:01.727Z,6.30
2018-06-04T19:07:29.853Z,5.80
2018-06-04T19:09:57.976Z,6.37
2018-06-04T19:12:26.061Z,6.60
2018-06-04T19:14:54.166Z,6.42
2018-06-04T19:17:22.220Z,6.60
2018-06-04T19:19:50.264Z,6.10
2018-06-04T19:22:18.352Z,6.23
2018-06-04T20:37:37.980Z,6.50
2018-06-04T20:40:06.123Z,6.47
2018-06-04T20:42:34.223Z,6.90
2018-06-04T20:45:02.279Z,6.37
2018-06-04T20:47:30.360Z,6.85
2018-06-04T20:49:58.417Z,6.30
2018-06-04T20:52:26.503Z,7.37
2018-06-04T20:54:54.571Z,6.58
2018-06-04T20:57:22.755Z,7.30
2018-06-04T20:59:50.807Z,6.63
2018-06-04T21:02:18.910Z,6.97
2018-06-04T21:04:46.969Z,6.75
2018-06-04T21:07:15.053Z,6.70
2018-06-04T21:09:43.095Z,7.70
2018-06-04T21:12:10.890Z,7.35
2018-06-04T21:14:38.944Z,8.53
2018-06-04T21:17:07.037Z,8.70
2018-06-04T21:19:35.220Z,8.60
2018-06-04T21:22:03.399Z,9.40
2018-06-04T21:24:31.455Z,8.50
2018-06-04T21:26:59.539Z,8.75
2018-06-04T21:29:27.595Z,8.30
2018-06-04T21:31:55.694Z,7.60
2018-06-04T21:34:23.765Z,8.10
2018-06-04T21:36:51.818Z,7.50
2018-06-04T21:39:19.913Z,6.90
2018-06-04T21:41:47.959Z,8.00
2018-06-04T21:44:16.060Z,7.65
2018-06-04T21:46:44.097Z,8.10
2018-06-04T21:49:16.889Z,8.55
2018-06-04T21:51:44.960Z,8.10
2018-06-04T21:54:13.051Z,7.83
2018-06-04T21:56:41.103Z,8.15
2018-06-04T21:59:09.204Z,8.28
2018-06-04T22:01:37.252Z,8.45
2018-06-04T22:04:05.323Z,7.35
2018-06-04T22:06:33.427Z,6.73
2018-06-04T22:09:01.505Z,7.50
2018-06-04T22:11:29.560Z,7.00
2018-06-04T22:13:57.608Z,7.40
2018-06-04T22:16:25.398Z,6.90
2018-06-04T22:18:53.697Z,6.78
2018-06-04T22:21:21.760Z,6.70
2018-06-04T22:23:49.804Z,6.67
2018-06-04T22:26:17.896Z,7.65
2018-06-04T22:28:45.981Z,8.30
2018-06-04T22:31:13.999Z,6.97
2018-06-04T22:33:42.121Z,8.30
2018-06-04T22:36:10.184Z,8.65
2018-06-04T22:38:38.372Z,8.60
2018-06-04T22:41:06.993Z,8.58
2018-06-04T22:43:35.025Z,8.47
2018-06-04T22:46:03.088Z,9.30
2018-06-04T22:48:31.182Z,8.70
2018-06-04T22:50:59.335Z,7.90
2018-06-04T22:53:27.436Z,8.08
2018-06-04T22:55:55.475Z,8.43
2018-06-04T22:58:23.683Z,7.60
2018-06-04T23:00:51.733Z,7.50
2018-06-04T23:03:19.823Z,7.70
2018-06-04T23:05:47.860Z,8.40
2018-06-04T23:08:15.930Z,8.20
2018-06-04T23:10:43.720Z,8.28
2018-06-04T23:13:11.811Z,8.53
2018-06-04T23:15:39.941Z,8.03
2018-06-04T23:18:07.723Z,8.08
2018-06-04T23:20:35.828Z,8.38
2018-06-04T23:23:03.868Z,9.90
2018-06-04T23:25:31.964Z,10.55
2018-06-04T23:28:00.017Z,9.98
2018-06-04T23:30:28.118Z,8.90
2018-06-04T23:32:56.259Z,9.23
2018-06-04T23:35:24.050Z,9.00
2018-06-04T23:37:52.140Z,9.43
2018-06-04T23:40:20.276Z,9.60
2018-06-04T23:42:48.461Z,9.65
2018-06-04T23:45:16.479Z,8.60
2018-06-04T23:47:44.510Z,8.60
2018-06-04T23:50:12.690Z,8.60
2018-06-04T23:52:40.767Z,9.40
2018-06-04T23:55:09.213Z,7.92
2018-06-04T23:57:37.632Z,8.50
